Time;durP1;ratioP1;P1;durP2;ratioP2;P2;SDS_P1;SDS_P2;PMS_P1;PMS_P2;Temp;Humidity;BMP_temperature;BMP_pressure;BME280_temperature;BME280_humidity;BME280_pressure;Samples;Min_cycle;Max_cycle;Signal;HPM_P1;HPM_P2
2023/05/08 00:02:11;;;;;;;7.60;6.57;;;;;;;13.75;61.25;98648.34;5019107;28;20468;-74
2023/05/08 00:04:37;;;;;;;8.23;6.30;;;;;;;13.65;60.92;98642.03;5011276;28;20034;-75
2023/05/08 00:07:02;;;;;;;7.18;6.47;;;;;;;13.80;61.00;98640.28;5023161;28;20033;-75
2023/05/08 00:09:28;;;;;;;7.22;6.53;;;;;;;13.58;61.32;98641.41;5012177;28;20369;-75
2023/05/08 00:11:53;;;;;;;7.75;6.97;;;;;;;13.79;60.92;98649.47;5007044;28;20052;-75
2023/05/08 00:14:18;;;;;;;6.95;5.88;;;;;;;13.58;60.80;98649.53;5011823;28;20129;-74
2023/05/08 00:16:44;;;;;;;6.82;6.18;;;;;;;13.63;61.24;98641.44;5011002;28;20034;-74
2023/05/08 00:19:09;;;;;;;7.07;6.28;;;;;;;13.73;61.15;98647.78;5025702;28;20030;-74
2023/05/08 00:21:35;;;;;;;8.18;7.07;;;;;;;13.55;61.37;98641.91;5024011;28;20029;-75
2023/05/08 00:24:00;;;;;;;7.30;6.70;;;;;;;13.63;61.11;98647.66;5017277;28;20070;-74
2023/05/08 00:26:25;;;;;;;6.65;6.03;;;;;;;13.48;62.04;98639.38;5002632;28;20176;-75
2023/05/08 00:28:51;;;;;;;7.47;6.72;;;;;;;13.58;61.68;98642.19;5007491;28;20030;-75
2023/05/08 00:31:17;;;;;;;7.65;6.95;;;;;;;13.36;62.13;98649.50;5014187;28;20029;-76
2023/05/08 00:33:42;;;;;;;7.75;6.97;;;;;;;13.57;60.74;98646.00;5000715;28;20497;-75
2023/05/08 00:36:07;;;;;;;7.25;6.50;;;;;;;13.60;61.01;98650.06;4999373;28;20550;-74
2023/05/08 00:38:34;;;;;;;7.00;6.40;;;;;;;13.54;60.49;98646.47;5005714;28;20037;-74
2023/05/08 00:41:00;;;;;;;6.72;6.05;;;;;;;13.35;61.63;98645.16;5023506;28;20124;-75
2023/05/08 00:43:27;;;;;;;7.03;6.32;;;;;;;13.47;61.81;98650.44;5017296;28;20490;-75
2023/05/08 00:45:56;;;;;;;7.03;6.32;;;;;;;13.51;60.74;98646.97;5019005;28;20057;-75
2023/05/08 00:48:25;;;;;;;6.65;6.00;;;;;;;13.30;62.30;98650.53;5024082;28;20034;-76
2023/05/08 00:50:51;;;;;;;7.10;6.13;;;;;;;13.40;60.36;98650.63;5023033;28;20037;-77
2023/05/08 00:53:18;;;;;;;6.85;6.18;;;;;;;13.30;61.18;98644.28;5000721;28;20021;-74
2023/05/08 00:55:44;;;;;;;7.43;5.88;;;;;;;13.56;60.64;98648.97;4998244;28;20030;-76
2023/05/08 00:58:10;;;;;;;9.57;6.60;;;;;;;13.38;61.06;98655.47;5007020;28;20025;-75
2023/05/08 01:00:36;;;;;;;6.25;5.65;;;;;;;13.38;61.61;98652.78;5007017;28;20033;-76
2023/05/08 01:03:02;;;;;;;7.18;6.47;;;;;;;13.04;62.18;98651.19;5000929;28;20041;-76
2023/05/08 01:05:28;;;;;;;6.38;5.82;;;;;;;13.23;61.45;98657.19;4998756;28;20485;-77
2023/05/08 01:07:53;;;;;;;6.40;5.80;;;;;;;12.96;61.47;98654.31;4990552;28;20072;-76
2023/05/08 01:10:18;;;;;;;7.18;6.47;;;;;;;12.83;62.66;98654.69;5027029;28;20128;-75
2023/05/08 01:12:59;;;;;;;6.95;6.25;;;;;;;12.84;61.84;98661.69;5023505;28;20116;-75
2023/05/08 01:15:53;;;;;;;6.78;6.07;;;;;;;13.18;61.39;98668.75;5023533;28;20034;-75
2023/05/08 01:18:24;;;;;;;6.80;6.10;;;;;;;13.34;59.70;98672.47;5019126;28;20396;-75
2023/05/08 01:21:11;;;;;;;6.97;6.28;;;;;;;12.91;59.98;98668.59;5000818;28;20075;-75
2023/05/08 01:24:08;;;;;;;6.15;5.65;;;;;;;13.17;59.98;98672.50;5019256;28;20519;-77
2023/05/08 01:26:55;;;;;;;6.70;6.10;;;;;;;13.06;60.44;98684.25;5027200;28;20033;-76
2023/05/08 01:29:58;;;;;;;6.30;5.68;;;;;;;13.05;62.37;98679.88;5012946;28;20069;-76
2023/05/08 01:32:27;;;;;;;6.57;5.95;;;;;;;13.02;61.74;98672.28;5009574;28;20487;-76
2023/05/08 01:35:15;;;;;;;6.78;5.95;;;;;;;13.01;62.96;98678.72;5015748;28;20043;-76
2023/05/08 01:38:08;;;;;;;6.38;5.78;;;;;;;13.00;62.30;98677.06;5049497;23;20048;-76
2023/05/08 01:41:08;;;;;;;6.53;5.93;;;;;;;13.05;63.08;98679.88;4987959;28;20112;-76
2023/05/08 01:44:05;;;;;;;7.65;6.18;;;;;;;12.80;63.90;98682.19;5012982;28;20092;-74
2023/05/08 01:46:31;;;;;;;6.63;6.03;;;;;;;13.06;62.94;98682.38;4968221;28;20140;-74
2023/05/08 01:49:07;;;;;;;7.25;6.55;;;;;;;12.85;63.82;98684.97;4986797;28;20434;-73
2023/05/08 01:51:39;;;;;;;6.75;6.05;;;;;;;12.89;64.33;98691.53;4993761;28;20034;-73
2023/05/08 01:54:07;;;;;;;6.88;6.25;;;;;;;12.75;64.33;98676.69;4993548;28;20480;-71
2023/05/08 01:56:33;;;;;;;6.35;5.80;;;;;;;12.62;64.75;98674.34;4974406;28;20491;-72
2023/05/08 01:59:00;;;;;;;6.43;5.68;;;;;;;12.88;64.12;98668.28;4967311;28;20129;-72
2023/05/08 02:01:27;;;;;;;6.75;6.05;;;;;;;12.42;63.86;98680.22;4958111;28;20026;-71
2023/05/08 02:03:54;;;;;;;6.72;6.10;;;;;;;12.68;63.98;98679.56;4971220;28;20034;-71
2023/05/08 02:06:21;;;;;;;7.13;6.43;;;;;;;12.40;63.42;98685.03;4987512;28;20021;-71
2023/05/08 02:08:48;;;;;;;7.13;6.05;;;;;;;12.07;64.62;98676.88;4987961;28;20034;-72
2023/05/08 02:11:14;;;;;;;6.97;6.20;;;;;;;12.62;62.26;98685.16;4974036;28;20022;-71
2023/05/08 02:13:40;;;;;;;7.03;6.07;;;;;;;12.49;63.88;98687.09;4954837;28;20057;-72
2023/05/08 02:16:10;;;;;;;7.13;6.43;;;;;;;12.81;63.59;98683.84;5009656;28;20022;-72
2023/05/08 02:18:37;;;;;;;6.72;6.03;;;;;;;12.80;63.43;98687.59;5007306;28;20171;-72
2023/05/08 02:21:04;;;;;;;6.88;6.18;;;;;;;11.86;66.20;98691.88;4992455;28;20585;-73
2023/05/08 02:23:30;;;;;;;7.80;7.03;;;;;;;12.26;65.20;98695.34;4985017;28;20038;-73
2023/05/08 02:25:56;;;;;;;7.43;6.72;;;;;;;12.18;64.05;98679.50;4993379;28;20033;-73
2023/05/08 02:28:22;;;;;;;6.88;6.28;;;;;;;12.48;64.19;98676.56;4993010;28;20045;-72
2023/05/08 02:30:49;;;;;;;7.40;6.60;;;;;;;12.41;65.37;98692.91;4994587;28;20480;-72
2023/05/08 02:33:15;;;;;;;6.85;6.22;;;;;;;12.44;64.41;98695.13;4990414;28;20030;-72
2023/05/08 02:35:43;;;;;;;7.80;7.00;;;;;;;12.31;64.48;98687.34;4992986;28;20030;-73
2023/05/08 02:38:09;;;;;;;7.75;7.05;;;;;;;12.52;63.93;98685.78;4992807;28;20042;-73
2023/05/08 02:40:43;;;;;;;7.65;6.88;;;;;;;12.36;65.04;98686.59;4973676;28;20504;-73
2023/05/08 02:43:09;;;;;;;7.32;6.63;;;;;;;12.41;64.67;98687.53;4972843;28;20034;-73
2023/05/08 02:45:47;;;;;;;7.28;6.60;;;;;;;12.42;63.33;98691.84;5009173;28;20104;-73
2023/05/08 02:48:26;;;;;;;7.47;6.78;;;;;;;12.09;64.66;98688.28;4992992;28;20112;-72
2023/05/08 02:51:22;;;;;;;7.10;6.40;;;;;;;12.24;63.67;98686.66;4976734;28;20031;-73
2023/05/08 02:53:58;;;;;;;7.45;6.30;;;;;;;12.49;63.33;98679.00;4975529;28;20065;-74
2023/05/08 02:56:31;;;;;;;6.97;6.38;;;;;;;12.55;63.01;98689.88;5009428;28;20092;-74
2023/05/08 02:59:09;;;;;;;7.30;6.60;;;;;;;12.27;63.75;98682.66;5009349;28;20030;-74
2023/05/08 03:01:43;;;;;;;7.65;6.95;;;;;;;12.28;65.15;98701.31;4957457;28;20042;-74
2023/05/08 03:04:10;;;;;;;7.70;6.63;;;;;;;12.27;64.85;98699.69;4984460;28;20060;-73
2023/05/08 03:06:39;;;;;;;7.72;6.55;;;;;;;12.26;65.43;98695.34;4984080;28;20087;-74
2023/05/08 03:09:05;;;;;;;6.75;6.05;;;;;;;12.53;63.49;98705.53;4981187;28;20046;-72
2023/05/08 03:11:37;;;;;;;6.85;6.25;;;;;;;12.49;62.27;98702.47;4985566;28;20026;-73
2023/05/08 03:14:04;;;;;;;7.93;7.15;;;;;;;11.76;62.87;98694.38;4982611;28;20030;-74
2023/05/08 03:16:31;;;;;;;9.30;7.57;;;;;;;12.02;62.37;98696.50;4982554;28;20097;-73
2023/05/08 03:19:04;;;;;;;7.63;6.93;;;;;;;12.07;62.75;98693.06;5002978;28;20034;-74
2023/05/08 03:21:30;;;;;;;7.80;7.03;;;;;;;12.09;62.32;98697.16;4992598;28;20034;-72
2023/05/08 03:23:59;;;;;;;7.43;6.72;;;;;;;12.14;62.44;98699.97;4999611;28;20022;-74
2023/05/08 03:26:25;;;;;;;7.32;6.63;;;;;;;12.23;62.11;98700.38;5012362;28;20057;-75
2023/05/08 03:28:51;;;;;;;7.93;7.22;;;;;;;12.17;61.65;98699.50;4982863;28;20546;-74
2023/05/08 03:31:21;;;;;;;7.72;7.03;;;;;;;11.84;62.93;98694.00;4995967;28;20413;-76
2023/05/08 03:33:47;;;;;;;7.82;7.13;;;;;;;11.73;62.91;98695.69;4995198;28;20096;-75
2023/05/08 03:36:13;;;;;;;8.52;7.53;;;;;;;11.83;62.91;98692.38;4980329;28;20097;-75
2023/05/08 03:38:39;;;;;;;8.23;7.30;;;;;;;11.84;62.69;98696.69;4992914;28;20021;-75
2023/05/08 03:41:06;;;;;;;8.00;7.30;;;;;;;11.77;62.62;98698.72;5011741;28;20045;-75
2023/05/08 03:43:31;;;;;;;8.43;7.63;;;;;;;11.84;62.30;98701.25;4994576;28;20018;-76
2023/05/08 03:45:57;;;;;;;8.60;7.80;;;;;;;11.89;62.31;98696.78;4995104;28;20037;-75
2023/05/08 03:48:23;;;;;;;8.52;7.55;;;;;;;11.55;62.52;98701.19;4995165;28;20030;-77
2023/05/08 03:50:49;;;;;;;8.18;7.38;;;;;;;11.81;62.86;98699.84;4995283;28;20045;-75
2023/05/08 03:53:15;;;;;;;7.88;7.05;;;;;;;11.57;63.95;98695.56;4995379;28;20030;-74
2023/05/08 03:55:40;;;;;;;8.13;6.88;;;;;;;11.80;62.36;98703.63;4994972;28;20056;-76
2023/05/08 03:58:31;;;;;;;8.45;7.50;;;;;;;11.91;62.17;98704.66;4994800;28;20048;-75
2023/05/08 04:01:22;;;;;;;8.52;7.15;;;;;;;11.77;62.81;98704.94;4978970;28;20064;-75
2023/05/08 04:04:00;;;;;;;8.25;7.55;;;;;;;11.93;62.54;98703.34;4999403;28;20084;-76
2023/05/08 04:06:45;;;;;;;8.30;7.50;;;;;;;11.97;62.84;98714.50;4963017;28;20460;-75
2023/05/08 04:09:27;;;;;;;8.07;6.90;;;;;;;12.04;62.39;98715.97;4991575;28;20471;-73
2023/05/08 04:12:04;;;;;;;9.35;7.28;;;;;;;11.88;62.57;98714.03;4971906;28;20577;-74
2023/05/08 04:14:40;;;;;;;8.63;7.65;;;;;;;11.82;62.43;98712.31;4963051;28;20030;-74
2023/05/08 04:17:08;;;;;;;7.95;7.28;;;;;;;11.79;62.62;98707.38;4985914;28;20034;-74
2023/05/08 04:19:37;;;;;;;7.50;6.80;;;;;;;11.78;63.31;98720.03;4994524;28;20479;-75
2023/05/08 04:22:07;;;;;;;7.80;7.07;;;;;;;11.86;62.88;98718.84;4978464;28;20034;-76
2023/05/08 04:24:39;;;;;;;9.07;7.70;;;;;;;12.05;62.66;98723.03;4966294;28;20497;-76
2023/05/08 04:27:06;;;;;;;8.02;7.32;;;;;;;11.89;63.74;98723.78;4980589;28;20125;-76
2023/05/08 04:29:32;;;;;;;8.13;7.28;;;;;;;11.81;62.98;98726.06;4987649;28;20025;-75
2023/05/08 04:31:59;;;;;;;7.88;7.18;;;;;;;11.96;63.29;98724.47;4975330;28;20038;-75
2023/05/08 04:34:25;;;;;;;8.55;7.75;;;;;;;11.62;63.68;98736.16;4990870;28;20472;-75
2023/05/08 04:36:50;;;;;;;9.02;7.50;;;;;;;12.01;62.29;98731.84;5007387;28;20050;-75
2023/05/08 04:39:17;;;;;;;8.43;7.55;;;;;;;12.08;62.38;98735.22;4991413;28;20113;-76
2023/05/08 04:41:42;;;;;;;8.95;7.43;;;;;;;11.78;64.01;98738.94;4975325;28;20034;-76
2023/05/08 04:44:08;;;;;;;9.30;8.40;;;;;;;11.72;64.16;98730.97;4997594;28;20116;-76
2023/05/08 04:46:33;;;;;;;8.90;8.00;;;;;;;12.09;62.84;98734.19;4994366;28;20036;-76
2023/05/08 04:48:59;;;;;;;8.60;7.70;;;;;;;12.00;62.93;98731.00;4978068;28;20026;-74
2023/05/08 04:51:25;;;;;;;9.05;8.20;;;;;;;11.73;63.43;98736.16;5007656;28;20035;-74
2023/05/08 04:53:51;;;;;;;8.85;7.95;;;;;;;12.00;62.49;98736.41;5007150;28;20027;-74
2023/05/08 04:56:18;;;;;;;9.18;8.27;;;;;;;11.50;63.25;98746.13;5026324;28;20480;-76
2023/05/08 04:58:43;;;;;;;8.95;8.00;;;;;;;11.66;63.19;98735.44;4995103;28;20022;-76
2023/05/08 05:01:09;;;;;;;9.35;8.45;;;;;;;11.96;63.23;98732.56;4996406;28;20027;-76
2023/05/08 05:03:34;;;;;;;9.05;8.25;;;;;;;12.17;62.52;98742.69;5009777;28;20467;-75
2023/05/08 05:06:00;;;;;;;8.75;7.95;;;;;;;11.88;63.81;98754.53;4978826;28;20030;-76
2023/05/08 05:08:26;;;;;;;9.55;8.65;;;;;;;12.02;63.28;98750.50;4995027;28;20022;-76
2023/05/08 05:10:53;;;;;;;9.52;8.45;;;;;;;12.37;61.82;98742.25;4978717;28;20034;-76
2023/05/08 05:13:18;;;;;;;9.10;8.20;;;;;;;12.23;62.78;98747.13;5000069;28;20057;-76
2023/05/08 05:15:44;;;;;;;9.13;8.23;;;;;;;12.56;61.94;98746.38;4990023;28;20479;-76
2023/05/08 05:18:11;;;;;;;8.18;7.47;;;;;;;12.61;61.33;98743.75;4978516;28;20045;-74
2023/05/08 05:20:37;;;;;;;8.93;8.00;;;;;;;12.48;62.48;98750.28;4978224;28;20117;-74
2023/05/08 05:23:03;;;;;;;9.43;8.52;;;;;;;12.21;63.33;98759.22;4994163;28;20495;-74
2023/05/08 05:25:29;;;;;;;9.80;8.85;;;;;;;12.29;63.02;98746.19;4993984;28;20578;-74
2023/05/08 05:27:54;;;;;;;8.63;7.82;;;;;;;12.54;62.79;98750.38;4983930;28;20116;-74
2023/05/08 05:30:20;;;;;;;8.73;7.80;;;;;;;12.55;62.54;98749.34;4997960;28;20376;-74
2023/05/08 05:32:45;;;;;;;9.30;8.40;;;;;;;12.58;62.76;98755.06;4996939;28;20427;-74
2023/05/08 05:35:11;;;;;;;10.52;8.57;;;;;;;12.61;62.12;98749.16;4990478;28;20034;-74
2023/05/08 05:37:36;;;;;;;9.13;8.13;;;;;;;12.65;62.50;98753.03;4968045;28;20030;-74
2023/05/08 05:40:02;;;;;;;9.60;8.70;;;;;;;12.59;62.35;98761.28;4998385;28;20038;-74
2023/05/08 05:42:30;;;;;;;10.02;9.02;;;;;;;12.63;62.08;98754.31;4999472;28;20026;-76
2023/05/08 05:44:56;;;;;;;9.43;8.52;;;;;;;12.82;62.07;98759.25;4976964;28;20074;-75
2023/05/08 05:47:21;;;;;;;11.50;9.82;;;;;;;13.11;61.17;98754.63;4994713;28;20034;-75
2023/05/08 05:49:47;;;;;;;9.65;8.65;;;;;;;12.46;61.90;98767.81;4961887;28;20670;-76
2023/05/08 05:52:13;;;;;;;11.77;10.52;;;;;;;12.60;61.60;98757.53;5010021;28;20030;-76
2023/05/08 05:54:40;;;;;;;12.60;10.80;;;;;;;12.71;61.04;98764.75;4974277;28;20408;-76
2023/05/08 05:57:06;;;;;;;14.05;11.43;;;;;;;12.68;63.47;98765.22;4984961;28;20026;-73
2023/05/08 05:59:32;;;;;;;10.90;9.38;;;;;;;13.22;62.02;98775.34;4977426;28;20054;-76
2023/05/08 06:01:58;;;;;;;12.68;10.20;;;;;;;13.31;61.30;98776.56;4977392;28;20468;-76
2023/05/08 06:04:23;;;;;;;9.88;8.95;;;;;;;13.34;59.02;98770.69;4974018;28;20027;-76
2023/05/08 06:06:49;;;;;;;11.52;9.55;;;;;;;12.49;63.47;98778.94;4967522;28;20038;-76
2023/05/08 06:09:14;;;;;;;10.90;9.80;;;;;;;12.76;62.93;98772.94;4961012;28;20034;-76
2023/05/08 06:11:40;;;;;;;10.05;9.02;;;;;;;13.09;60.38;98781.91;4994554;28;20026;-75
2023/05/08 06:14:06;;;;;;;9.90;9.00;;;;;;;12.72;62.71;98782.63;5009368;28;20456;-76
2023/05/08 06:16:31;;;;;;;9.90;8.90;;;;;;;12.88;60.89;98781.81;5006839;28;20030;-75
2023/05/08 06:18:57;;;;;;;9.63;8.70;;;;;;;13.06;61.92;98784.31;4993876;28;20034;-75
2023/05/08 06:21:23;;;;;;;11.15;10.05;;;;;;;13.48;60.96;98785.50;4996691;28;20025;-75
2023/05/08 06:23:49;;;;;;;9.65;8.75;;;;;;;13.06;61.20;98787.00;4996059;28;20046;-75
2023/05/08 06:26:14;;;;;;;11.82;9.02;;;;;;;13.64;59.92;98792.78;4996496;28;20084;-75
2023/05/08 06:28:40;;;;;;;11.07;9.20;;;;;;;13.64;59.55;98792.78;5012564;28;20088;-76
2023/05/08 06:31:05;;;;;;;11.55;10.40;;;;;;;12.78;62.72;98781.63;5012595;28;20026;-76
2023/05/08 06:33:30;;;;;;;10.75;9.63;;;;;;;13.52;61.13;98794.75;5014249;28;20030;-75
2023/05/08 06:35:56;;;;;;;10.43;9.40;;;;;;;13.55;59.73;98788.84;5015478;28;20022;-77
2023/05/08 06:38:21;;;;;;;9.98;8.98;;;;;;;13.83;59.43;98783.28;4982597;28;20038;-77
2023/05/08 06:40:49;;;;;;;10.43;9.32;;;;;;;13.54;60.57;98787.19;5015161;28;20112;-76
2023/05/08 06:43:14;;;;;;;10.52;9.52;;;;;;;13.81;59.86;98780.03;4999240;28;20061;-77
2023/05/08 06:45:42;;;;;;;11.18;9.45;;;;;;;14.18;58.39;98787.50;4998633;28;20029;-77
2023/05/08 06:48:07;;;;;;;11.18;9.70;;;;;;;14.19;57.95;98776.41;5014972;28;20456;-77
2023/05/08 06:50:33;;;;;;;9.60;8.70;;;;;;;14.21;57.56;98770.75;4998837;28;20049;-77
2023/05/08 06:52:58;;;;;;;13.00;9.27;;;;;;;14.24;58.48;98781.06;4998154;28;20116;-77
2023/05/08 06:55:23;;;;;;;9.88;8.88;;;;;;;14.46;57.85;98779.19;5016622;28;20057;-77
2023/05/08 06:57:49;;;;;;;10.43;9.43;;;;;;;14.65;56.56;98776.94;4998411;28;20542;-77
2023/05/08 07:00:15;;;;;;;11.02;9.75;;;;;;;14.78;56.69;98777.34;5014769;28;20108;-77
2023/05/08 07:02:40;;;;;;;10.10;9.10;;;;;;;14.91;56.05;98776.09;4993830;28;20046;-77
2023/05/08 07:05:06;;;;;;;11.98;9.50;;;;;;;14.41;57.41;98774.53;4988365;28;20080;-75
2023/05/08 07:07:31;;;;;;;10.07;9.07;;;;;;;15.05;55.67;98778.09;4987094;28;20049;-77
2023/05/08 07:09:56;;;;;;;10.75;9.35;;;;;;;15.01;55.96;98777.00;5003566;28;20226;-77
2023/05/08 07:12:22;;;;;;;10.40;8.38;;;;;;;15.08;55.55;98777.59;4979830;28;20102;-77
2023/05/08 07:14:48;;;;;;;9.55;8.65;;;;;;;15.32;56.20;98769.09;5012805;28;20109;-77
2023/05/08 07:17:13;;;;;;;9.45;8.55;;;;;;;15.42;55.69;98771.88;4997759;28;20026;-77
2023/05/08 07:19:38;;;;;;;10.68;9.57;;;;;;;15.15;56.28;98778.19;5010417;28;20026;-76
2023/05/08 07:22:04;;;;;;;9.45;8.55;;;;;;;15.35;56.13;98776.72;5005281;28;20386;-75
2023/05/08 07:24:30;;;;;;;10.15;8.30;;;;;;;15.27;56.61;98777.19;5024498;28;20164;-74
2023/05/08 07:26:55;;;;;;;10.02;9.02;;;;;;;14.73;58.68;98774.56;4994982;28;20041;-76
2023/05/08 07:29:20;;;;;;;10.05;9.15;;;;;;;15.11;56.23;98782.53;5025028;28;20018;-76
2023/05/08 07:31:47;;;;;;;10.35;9.30;;;;;;;15.36;56.44;98778.34;4979190;28;20048;-76
2023/05/08 07:34:12;;;;;;;10.75;9.68;;;;;;;15.08;56.89;98777.59;5004260;28;20030;-77
2023/05/08 07:36:39;;;;;;;10.07;9.07;;;;;;;15.04;57.70;98775.66;4990964;28;20606;-77
2023/05/08 07:39:04;;;;;;;10.40;9.50;;;;;;;15.11;57.45;98774.38;5021902;22;20065;-76
2023/05/08 07:41:29;;;;;;;11.13;9.82;;;;;;;15.34;57.62;98777.78;5017547;28;20503;-76
2023/05/08 07:43:55;;;;;;;12.52;10.13;;;;;;;14.99;57.00;98778.34;5012798;28;20030;-76
2023/05/08 07:46:21;;;;;;;11.82;9.93;;;;;;;15.15;57.45;98783.63;4999607;28;20034;-76
2023/05/08 07:48:46;;;;;;;10.55;9.45;;;;;;;15.08;57.26;98788.47;4986884;28;20447;-76
2023/05/08 07:51:12;;;;;;;11.70;10.55;;;;;;;15.03;57.70;98777.56;4980447;28;20066;-75
2023/05/08 07:53:38;;;;;;;11.07;9.98;;;;;;;15.12;57.18;98784.13;4977810;28;20468;-76
2023/05/08 07:56:04;;;;;;;11.10;9.85;;;;;;;15.53;57.72;98784.47;4991770;28;20045;-75
2023/05/08 07:58:29;;;;;;;11.02;9.90;;;;;;;15.30;55.67;98787.53;4950877;28;20023;-77
2023/05/08 08:00:55;;;;;;;11.27;9.38;;;;;;;14.91;59.75;98782.31;4987847;28;20084;-75
2023/05/08 08:03:20;;;;;;;11.70;9.60;;;;;;;15.05;58.24;98780.81;4957840;28;20029;-77
2023/05/08 08:05:45;;;;;;;11.07;9.65;;;;;;;15.34;57.01;98775.06;4978227;28;20031;-76
2023/05/08 08:08:11;;;;;;;11.82;9.85;;;;;;;15.16;58.40;98779.84;4956341;28;20018;-76
2023/05/08 08:10:36;;;;;;;10.25;9.18;;;;;;;15.85;56.44;98777.06;4968129;28;20487;-76
2023/05/08 08:13:02;;;;;;;10.98;9.80;;;;;;;15.21;58.03;98788.03;4966797;28;20034;-76
2023/05/08 08:15:27;;;;;;;10.88;9.73;;;;;;;15.35;58.52;98782.16;4968389;28;20041;-76
2023/05/08 08:17:53;;;;;;;11.15;10.00;;;;;;;15.68;57.25;98787.28;4962548;28;20052;-76
2023/05/08 08:20:18;;;;;;;11.20;10.10;;;;;;;15.57;56.94;98780.16;4961674;28;20496;-76
2023/05/08 08:22:44;;;;;;;11.25;9.50;;;;;;;15.95;57.88;98784.44;4967163;28;20023;-76
2023/05/08 08:25:09;;;;;;;10.95;9.85;;;;;;;15.92;58.37;98783.06;4968707;28;20057;-76
2023/05/08 08:27:35;;;;;;;11.85;10.65;;;;;;;15.47;57.56;98788.25;4973959;28;20027;-76
2023/05/08 08:30:00;;;;;;;12.23;11.10;;;;;;;15.41;56.37;98781.09;4977811;28;20045;-77
2023/05/08 08:32:26;;;;;;;11.75;10.65;;;;;;;15.60;57.19;98776.91;4999413;28;20027;-76
2023/05/08 08:34:51;;;;;;;11.88;10.75;;;;;;;15.86;55.70;98787.66;4986127;28;20054;-76
2023/05/08 08:37:16;;;;;;;12.32;11.18;;;;;;;16.19;55.07;98782.94;4966927;28;20026;-76
2023/05/08 08:39:42;;;;;;;12.25;10.98;;;;;;;16.01;55.33;98780.69;4968464;28;20052;-76
2023/05/08 08:42:07;;;;;;;11.10;9.88;;;;;;;17.14;53.74;98768.72;4963572;28;20022;-76
2023/05/08 08:44:33;;;;;;;10.55;9.45;;;;;;;17.36;52.52;98774.69;4974872;28;20042;-76
2023/05/08 08:46:59;;;;;;;11.77;10.38;;;;;;;17.45;52.79;98764.88;4967312;28;20118;-76
2023/05/08 08:49:30;;;;;;;11.70;10.50;;;;;;;16.64;53.36;98774.13;4984564;28;20038;-76
2023/05/08 08:52:02;;;;;;;11.70;10.60;;;;;;;16.55;54.21;98774.63;4980324;28;20035;-75
2023/05/08 08:54:30;;;;;;;13.07;10.80;;;;;;;16.12;55.92;98777.75;4962072;28;20511;-76
2023/05/08 08:56:56;;;;;;;11.95;10.75;;;;;;;16.12;55.77;98782.34;4991859;28;20038;-76
2023/05/08 08:59:23;;;;;;;11.98;10.48;;;;;;;16.06;54.92;98777.97;4962026;28;20084;-76
2023/05/08 09:01:57;;;;;;;13.05;10.77;;;;;;;16.32;55.93;98776.97;4981074;28;20121;-75
2023/05/08 09:04:26;;;;;;;12.05;10.50;;;;;;;16.45;55.71;98776.50;4984554;28;20035;-77
2023/05/08 09:06:52;;;;;;;11.30;10.10;;;;;;;16.33;55.42;98778.63;4967284;28;20026;-76
2023/05/08 09:09:17;;;;;;;11.65;10.43;;;;;;;15.85;56.78;98777.06;4977726;28;20038;-75
2023/05/08 09:11:45;;;;;;;12.00;10.80;;;;;;;16.31;58.16;98776.16;4963874;28;20027;-76
2023/05/08 09:14:10;;;;;;;11.57;10.40;;;;;;;16.77;57.49;98781.75;4968004;28;20135;-76
2023/05/08 09:16:36;;;;;;;11.13;10.00;;;;;;;16.97;55.15;98773.59;4966460;28;20122;-76
2023/05/08 09:19:02;;;;;;;11.15;10.07;;;;;;;17.15;55.19;98770.34;4977941;28;20059;-76
2023/05/08 09:21:27;;;;;;;11.20;10.10;;;;;;;17.49;54.62;98768.69;4979795;28;20460;-76
2023/05/08 09:24:03;;;;;;;10.45;9.45;;;;;;;17.78;51.08;98777.91;4984484;28;20038;-76
2023/05/08 09:26:36;;;;;;;11.45;9.77;;;;;;;16.56;58.07;98765.41;4983696;28;20564;-76
2023/05/08 09:29:15;;;;;;;11.35;10.15;;;;;;;16.40;55.50;98771.03;4971256;28;20146;-76
2023/05/08 09:31:45;;;;;;;11.35;9.95;;;;;;;17.47;53.98;98767.31;4972491;28;20053;-77
2023/05/08 09:34:22;;;;;;;10.95;9.77;;;;;;;17.67;56.04;98770.84;4980105;28;20041;-76
2023/05/08 09:36:48;;;;;;;11.68;10.48;;;;;;;17.73;54.27;98772.50;4962216;28;20045;-77
2023/05/08 09:39:21;;;;;;;11.43;9.88;;;;;;;18.04;52.61;98772.38;4974561;28;20026;-77
2023/05/08 09:42:00;;;;;;;11.23;9.68;;;;;;;18.67;52.38;98768.81;4977841;28;20535;-77
2023/05/08 09:44:26;;;;;;;10.88;9.57;;;;;;;18.70;50.08;98772.88;4965020;28;20038;-77
2023/05/08 09:46:52;;;;;;;11.27;10.15;;;;;;;17.70;53.86;98778.47;4987694;28;20027;-77
2023/05/08 09:49:18;;;;;;;11.23;10.13;;;;;;;17.64;52.22;98771.38;4987592;28;20034;-77
2023/05/08 09:51:52;;;;;;;10.50;9.40;;;;;;;18.68;50.62;98767.72;4964956;28;20406;-76
2023/05/08 09:54:18;;;;;;;10.85;9.75;;;;;;;19.10;49.19;98759.75;4980551;28;20035;-77
2023/05/08 09:56:43;;;;;;;10.45;9.30;;;;;;;19.24;50.75;98766.19;4970251;28;20038;-76
2023/05/08 09:59:22;;;;;;;12.80;9.80;;;;;;;19.19;49.66;98763.50;4971332;28;20113;-76
2023/05/08 10:01:47;;;;;;;12.25;10.13;;;;;;;19.03;49.31;98763.91;4983468;28;20030;-75
2023/05/08 10:04:13;;;;;;;11.05;9.95;;;;;;;19.45;49.38;98766.84;4991665;28;20598;-76
2023/05/08 10:06:38;;;;;;;10.38;8.57;;;;;;;19.80;48.87;98768.41;4966791;28;20113;-76
2023/05/08 10:09:09;;;;;;;11.23;8.88;;;;;;;19.40;48.07;98763.34;4981336;28;20388;-76
2023/05/08 10:11:34;;;;;;;11.32;9.18;;;;;;;18.72;50.70;98760.59;4977379;28;20034;-77
2023/05/08 10:14:00;;;;;;;10.27;9.05;;;;;;;18.37;53.27;98755.31;4964497;28;20034;-76
2023/05/08 10:16:27;;;;;;;10.55;9.55;;;;;;;17.82;53.05;98757.19;4984284;28;20070;-76
2023/05/08 10:18:56;;;;;;;9.43;8.52;;;;;;;18.91;53.86;98752.53;4974262;28;20026;-76
2023/05/08 10:21:23;;;;;;;12.68;9.90;;;;;;;19.24;53.10;98755.28;4967962;28;20042;-76
2023/05/08 10:23:49;;;;;;;10.07;9.05;;;;;;;19.31;51.47;98755.75;4986811;28;20477;-76
2023/05/08 10:26:20;;;;;;;9.95;8.95;;;;;;;18.64;54.33;98755.75;4983991;28;20045;-76
2023/05/08 10:28:55;;;;;;;10.95;9.85;;;;;;;18.73;55.17;98755.94;4964259;28;20038;-77
2023/05/08 10:31:20;;;;;;;11.05;8.93;;;;;;;18.15;53.03;98763.06;4981797;28;20038;-76
2023/05/08 10:33:50;;;;;;;9.77;8.77;;;;;;;18.89;51.44;98757.47;4975879;28;20499;-77
2023/05/08 10:36:15;;;;;;;9.95;8.95;;;;;;;18.90;52.27;98759.13;4981422;28;20113;-76
2023/05/08 10:38:42;;;;;;;10.38;9.25;;;;;;;18.74;54.81;98761.13;4986748;28;20370;-77
2023/05/08 10:41:09;;;;;;;10.48;9.45;;;;;;;18.34;53.90;98750.44;4985691;28;20104;-76
2023/05/08 10:43:35;;;;;;;11.55;9.45;;;;;;;18.65;53.87;98757.34;4979860;28;20667;-76
2023/05/08 10:46:08;;;;;;;9.60;8.70;;;;;;;18.75;52.36;98751.03;4997404;28;20030;-77
2023/05/08 10:48:54;;;;;;;10.48;9.38;;;;;;;19.13;55.52;98759.19;4956506;28;20034;-76
2023/05/08 10:51:27;;;;;;;10.18;9.18;;;;;;;18.63;52.37;98756.81;4997592;28;20042;-77
2023/05/08 10:53:58;;;;;;;10.57;9.52;;;;;;;19.03;54.54;98756.53;4971889;28;20133;-76
2023/05/08 10:56:27;;;;;;;10.73;9.65;;;;;;;20.05;50.27;98751.72;4990709;28;20037;-77
2023/05/08 10:58:57;;;;;;;10.73;9.60;;;;;;;18.92;52.50;98752.28;4980911;28;20019;-77
2023/05/08 11:01:23;;;;;;;10.43;9.27;;;;;;;19.32;53.53;98754.63;4972841;28;20034;-77
2023/05/08 11:03:53;;;;;;;12.30;10.30;;;;;;;18.89;51.70;98752.84;4977666;28;20031;-77
2023/05/08 11:06:47;;;;;;;12.20;10.52;;;;;;;18.34;52.56;98755.88;4963539;28;20559;-77
2023/05/08 11:09:21;;;;;;;12.70;11.07;;;;;;;18.44;53.24;98744.91;5000254;28;20492;-76
2023/05/08 11:11:53;;;;;;;9.48;8.45;;;;;;;19.82;52.74;98750.63;4983725;28;20110;-76
2023/05/08 11:14:20;;;;;;;10.13;9.10;;;;;;;18.93;51.30;98744.88;4965720;28;20177;-76
2023/05/08 11:17:00;;;;;;;22.77;10.27;;;;;;;19.14;51.84;98747.16;4982582;28;20506;-76
2023/05/08 11:19:27;;;;;;;9.95;8.85;;;;;;;19.00;51.36;98748.91;4983752;28;20038;-77
2023/05/08 11:22:14;;;;;;;10.88;9.65;;;;;;;18.76;51.86;98747.22;4981258;28;20011;-77
2023/05/08 11:24:47;;;;;;;9.77;8.88;;;;;;;19.55;50.30;98744.91;4983515;28;20042;-76
2023/05/08 11:27:13;;;;;;;11.85;9.90;;;;;;;19.65;49.28;98744.00;4965928;28;20377;-76
2023/05/08 11:29:38;;;;;;;10.63;9.38;;;;;;;19.50;50.99;98735.94;4986213;28;20025;-77
2023/05/08 11:32:04;;;;;;;10.18;9.07;;;;;;;19.46;51.11;98743.09;4966381;28;20050;-77
2023/05/08 11:34:42;;;;;;;10.98;9.30;;;;;;;19.48;52.83;98749.06;4963905;28;20440;-77
2023/05/08 11:37:15;;;;;;;9.45;8.60;;;;;;;19.19;53.79;98752.59;4985452;28;20052;-76